createdAt,value
2023-02-02T00:01:56.834Z,3.10
2023-02-02T00:04:35.487Z,3.10
2023-02-02T00:07:05.300Z,3.10
2023-02-02T00:09:33.717Z,3.10
2023-02-02T00:12:01.652Z,3.10
2023-02-02T00:14:29.642Z,3.20
2023-02-02T00:16:57.910Z,3.20
2023-02-02T00:19:28.223Z,3.30
2023-02-02T00:21:55.806Z,3.30
2023-02-02T00:24:24.060Z,3.40
2023-02-02T00:26:56.999Z,3.40
2023-02-02T00:29:28.108Z,3.30
2023-02-02T00:31:56.175Z,3.30
2023-02-02T00:34:23.959Z,3.30
2023-02-02T00:36:51.699Z,3.30
2023-02-02T00:39:27.844Z,3.30
2023-02-02T00:41:55.522Z,3.20
2023-02-02T00:44:41.645Z,3.10
2023-02-02T00:47:09.209Z,3.20
2023-02-02T00:49:37.212Z,3.10
2023-02-02T00:52:05.040Z,3.00
2023-02-02T00:54:32.534Z,3.00
2023-02-02T00:56:59.950Z,3.00
2023-02-02T00:59:27.398Z,3.00
2023-02-02T01:01:54.917Z,3.10
2023-02-02T01:04:22.466Z,3.00
2023-02-02T01:06:49.953Z,3.00
2023-02-02T01:09:17.391Z,2.90
2023-02-02T01:11:44.829Z,2.90
2023-02-02T01:14:12.243Z,3.00
2023-02-02T01:16:39.843Z,3.00
2023-02-02T01:19:07.542Z,3.00
2023-02-02T01:21:34.996Z,3.00
2023-02-02T01:24:02.404Z,3.10
2023-02-02T01:26:30.203Z,3.00
2023-02-02T01:28:58.815Z,3.00
2023-02-02T01:31:26.902Z,3.10
2023-02-02T01:33:54.423Z,3.10
2023-02-02T01:36:23.927Z,3.10
2023-02-02T01:38:51.909Z,3.10
2023-02-02T01:41:22.522Z,3.20
2023-02-02T01:43:54.930Z,3.20
2023-02-02T01:46:34.453Z,3.20
2023-02-02T01:49:14.339Z,3.10
2023-02-02T01:51:43.707Z,3.00
2023-02-02T01:54:18.955Z,2.90
2023-02-02T01:56:59.017Z,2.90
2023-02-02T01:59:29.391Z,2.90
2023-02-02T02:01:57.075Z,3.00
2023-02-02T02:04:26.643Z,3.00
2023-02-02T02:06:54.477Z,3.00
2023-02-02T02:09:22.258Z,3.10
2023-02-02T02:11:49.739Z,3.10
2023-02-02T02:14:36.108Z,3.20
2023-02-02T02:17:33.625Z,3.20
2023-02-02T02:20:39.026Z,3.20
2023-02-02T02:23:51.462Z,3.30
2023-02-02T02:26:34.070Z,3.20
2023-02-02T02:29:27.021Z,3.30
2023-02-02T02:32:01.489Z,3.40
2023-02-02T02:34:45.407Z,3.40
2023-02-02T02:37:30.864Z,3.40
2023-02-02T02:40:09.933Z,3.40
2023-02-02T02:42:41.692Z,3.40
2023-02-02T02:45:12.869Z,3.40
2023-02-02T02:47:42.277Z,3.40
2023-02-02T02:50:10.736Z,3.40
2023-02-02T02:52:40.066Z,3.30
2023-02-02T02:55:10.790Z,3.40
2023-02-02T02:57:54.231Z,3.30
2023-02-02T03:00:21.725Z,3.30
2023-02-02T03:03:09.519Z,3.30
2023-02-02T03:05:45.764Z,3.30
2023-02-02T03:08:48.580Z,3.30
2023-02-02T03:11:17.472Z,3.40
2023-02-02T03:13:45.308Z,3.40
2023-02-02T03:16:14.857Z,3.40
2023-02-02T03:18:42.692Z,3.30
2023-02-02T03:21:12.148Z,3.30
2023-02-02T03:23:40.009Z,3.40
2023-02-02T03:26:08.106Z,3.40
2023-02-02T03:28:36.122Z,3.40
2023-02-02T03:31:03.974Z,3.40
2023-02-02T03:33:35.415Z,3.30
2023-02-02T03:36:02.918Z,3.30
2023-02-02T03:38:30.420Z,3.40
2023-02-02T03:40:57.886Z,3.40
2023-02-02T03:43:25.808Z,3.30
2023-02-02T03:46:04.452Z,3.20
2023-02-02T03:48:37.020Z,3.20
2023-02-02T03:51:09.256Z,3.20
2023-02-02T03:53:36.750Z,3.20
2023-02-02T03:56:04.378Z,3.20
2023-02-02T03:58:31.826Z,3.20
2023-02-02T04:01:07.627Z,3.30
2023-02-02T04:03:35.092Z,3.40
2023-02-02T04:06:03.011Z,3.40
2023-02-02T04:08:31.310Z,3.40
2023-02-02T04:10:59.630Z,3.30
2023-02-02T04:13:27.244Z,3.20
2023-02-02T04:16:00.264Z,3.10
2023-02-02T04:18:28.859Z,3.10
2023-02-02T04:21:01.216Z,3.10
2023-02-02T04:23:29.570Z,3.20
2023-02-02T04:25:57.869Z,3.20
2023-02-02T04:28:26.831Z,3.30
2023-02-02T04:30:55.858Z,3.30
2023-02-02T04:33:25.260Z,3.30
2023-02-02T04:35:52.780Z,3.30
2023-02-02T04:38:20.448Z,3.30
2023-02-02T04:40:48.645Z,3.30
2023-02-02T04:43:16.605Z,3.30
2023-02-02T04:45:45.005Z,3.30
2023-02-02T04:48:12.774Z,3.40
2023-02-02T04:50:40.438Z,3.30
2023-02-02T04:53:08.264Z,3.40
2023-02-02T04:55:39.106Z,3.40
2023-02-02T04:58:06.755Z,3.20
2023-02-02T05:00:34.420Z,3.00
2023-02-02T05:03:01.888Z,3.00
2023-02-02T05:05:29.326Z,3.00
2023-02-02T05:07:56.857Z,3.00
2023-02-02T05:10:24.382Z,2.90
2023-02-02T05:12:55.581Z,3.00
2023-02-02T05:15:23.470Z,3.10
2023-02-02T05:17:51.190Z,3.10
2023-02-02T05:20:18.789Z,3.20
2023-02-02T05:22:49.814Z,3.20
2023-02-02T05:25:17.859Z,3.30
2023-02-02T05:27:46.406Z,3.20
2023-02-02T05:30:14.449Z,3.20
2023-02-02T05:32:41.955Z,3.30
2023-02-02T05:35:10.466Z,3.30
2023-02-02T05:37:38.009Z,3.30
2023-02-02T05:40:05.911Z,3.40
2023-02-02T05:42:33.424Z,3.30
2023-02-02T05:45:01.152Z,3.30
2023-02-02T05:47:28.920Z,3.30
2023-02-02T05:49:56.826Z,3.40
2023-02-02T05:52:25.713Z,3.30
2023-02-02T05:54:53.322Z,3.40
2023-02-02T05:57:20.857Z,3.30
2023-02-02T05:59:48.697Z,3.30
2023-02-02T06:02:16.178Z,3.30
2023-02-02T06:04:43.657Z,3.30
2023-02-02T06:07:11.240Z,3.30
2023-02-02T06:09:38.796Z,3.30
2023-02-02T06:12:06.677Z,3.30
2023-02-02T06:14:34.110Z,3.40
2023-02-02T06:17:01.759Z,3.40
2023-02-02T06:19:29.257Z,3.40
2023-02-02T06:21:56.740Z,3.30
2023-02-02T06:24:24.655Z,3.30
2023-02-02T06:26:52.151Z,3.20
2023-02-02T06:29:19.615Z,3.20
2023-02-02T06:31:47.210Z,3.20
2023-02-02T06:34:14.942Z,3.20
2023-02-02T06:36:42.922Z,3.20
2023-02-02T06:39:10.436Z,3.20
2023-02-02T06:41:38.005Z,3.10
2023-02-02T06:44:05.463Z,3.20
2023-02-02T06:46:33.035Z,3.20
2023-02-02T06:49:00.655Z,3.20
2023-02-02T06:51:28.116Z,3.10
2023-02-02T06:53:57.738Z,3.10
2023-02-02T06:56:26.881Z,3.20
2023-02-02T06:58:54.389Z,3.30
2023-02-02T07:01:22.147Z,3.40
2023-02-02T07:03:51.174Z,3.40
2023-02-02T07:06:24.080Z,3.40
2023-02-02T07:09:01.789Z,3.50
2023-02-02T07:11:39.767Z,3.60
2023-02-02T07:14:09.630Z,3.50
2023-02-02T07:16:37.136Z,3.60
2023-02-02T07:19:04.700Z,3.60
2023-02-02T07:21:36.080Z,3.60
2023-02-02T07:24:04.673Z,3.60
2023-02-02T07:26:34.179Z,3.60
2023-02-02T07:29:01.781Z,3.60
2023-02-02T07:31:29.486Z,3.60
2023-02-02T07:33:57.141Z,3.50
2023-02-02T07:36:25.173Z,3.50
2023-02-02T07:39:02.310Z,3.60
2023-02-02T07:41:29.913Z,3.60
2023-02-02T07:43:57.437Z,3.60
2023-02-02T07:46:25.272Z,3.60
2023-02-02T07:48:57.029Z,3.70
2023-02-02T07:51:25.579Z,3.60
2023-02-02T07:53:54.873Z,3.60
2023-02-02T07:56:25.511Z,3.60
2023-02-02T07:58:55.061Z,3.60
2023-02-02T08:01:23.434Z,3.60
2023-02-02T08:03:51.669Z,3.50
2023-02-02T08:06:36.854Z,3.50
2023-02-02T08:09:07.847Z,3.50
2023-02-02T08:11:36.517Z,3.50
2023-02-02T08:14:05.946Z,3.50
2023-02-02T08:16:34.251Z,3.50
2023-02-02T08:19:01.929Z,3.50
2023-02-02T08:21:29.570Z,3.50
2023-02-02T08:23:57.338Z,3.50
2023-02-02T08:26:27.552Z,3.50
2023-02-02T08:28:57.704Z,3.50
2023-02-02T08:31:31.333Z,3.50
2023-02-02T08:33:58.957Z,3.50
2023-02-02T08:36:28.509Z,3.50
2023-02-02T08:38:56.059Z,3.50
2023-02-02T08:41:24.269Z,3.50
2023-02-02T08:43:52.112Z,3.50
2023-02-02T08:46:20.997Z,3.60
2023-02-02T08:48:49.320Z,3.60
2023-02-02T08:51:19.081Z,3.60
2023-02-02T08:53:47.103Z,3.60
2023-02-02T08:56:20.617Z,3.60
2023-02-02T08:58:58.653Z,3.70
2023-02-02T09:01:32.443Z,3.70
2023-02-02T09:04:08.528Z,3.70
2023-02-02T09:06:38.094Z,3.70
2023-02-02T09:09:08.136Z,3.60
2023-02-02T09:11:35.965Z,3.60
2023-02-02T09:14:06.201Z,3.60
2023-02-02T09:16:35.435Z,3.70
2023-02-02T09:19:03.989Z,3.60
2023-02-02T09:21:36.632Z,3.60
2023-02-02T09:24:09.375Z,3.60
2023-02-02T09:26:38.581Z,3.60
2023-02-02T09:29:08.416Z,3.60
2023-02-02T09:31:38.019Z,3.60
2023-02-02T09:34:08.148Z,3.60
2023-02-02T09:36:36.829Z,3.70
2023-02-02T09:39:05.476Z,3.70
2023-02-02T09:41:35.705Z,3.70
2023-02-02T09:44:27.533Z,3.70
2023-02-02T09:47:13.399Z,3.70
2023-02-02T09:50:02.188Z,3.70
2023-02-02T09:52:44.395Z,3.60
2023-02-02T09:55:47.728Z,3.60
2023-02-02T09:58:39.864Z,3.70
2023-02-02T10:01:21.603Z,3.70
2023-02-02T10:04:11.799Z,3.80
2023-02-02T10:06:40.811Z,3.80
2023-02-02T10:09:24.166Z,3.70
2023-02-02T10:12:10.508Z,3.80
2023-02-02T10:15:01.666Z,3.80
2023-02-02T10:17:54.980Z,3.80
2023-02-02T10:20:28.763Z,3.80
2023-02-02T10:22:59.841Z,3.90
2023-02-02T10:25:29.080Z,3.90
2023-02-02T10:28:18.473Z,3.90
2023-02-02T10:30:50.517Z,3.90
2023-02-02T10:33:50.352Z,4.00
2023-02-02T10:36:43.927Z,4.00
2023-02-02T10:39:34.727Z,4.00
2023-02-02T10:42:11.374Z,4.10
2023-02-02T10:44:48.232Z,4.10
2023-02-02T10:47:24.154Z,4.10
2023-02-02T10:50:28.636Z,4.10
2023-02-02T10:53:01.493Z,4.10
2023-02-02T10:55:35.715Z,4.10
2023-02-02T10:58:12.470Z,4.10
2023-02-02T11:00:50.980Z,4.10
2023-02-02T11:03:22.041Z,4.10
2023-02-02T11:06:07.998Z,4.20
2023-02-02T11:08:43.780Z,4.10
2023-02-02T11:11:38.402Z,4.10
2023-02-02T11:14:09.346Z,4.10
2023-02-02T11:16:44.278Z,4.20
2023-02-02T11:19:18.001Z,4.20
2023-02-02T11:21:48.784Z,4.30
2023-02-02T11:24:24.671Z,4.30
2023-02-02T11:27:02.043Z,4.30
2023-02-02T11:29:29.586Z,4.30
2023-02-02T11:31:57.700Z,4.30
2023-02-02T11:34:27.283Z,4.30
2023-02-02T11:37:23.583Z,4.40
2023-02-02T11:39:53.751Z,4.40
2023-02-02T11:42:24.146Z,4.40
2023-02-02T11:44:57.969Z,4.40
2023-02-02T11:47:32.895Z,4.40
2023-02-02T11:50:03.568Z,4.40
2023-02-02T11:52:33.309Z,4.40
2023-02-02T11:55:09.175Z,4.30
2023-02-02T11:57:37.219Z,4.30
2023-02-02T12:00:10.722Z,4.30
2023-02-02T12:02:45.256Z,4.30
2023-02-02T12:05:21.783Z,4.30
2023-02-02T12:07:49.897Z,4.10
2023-02-02T12:10:17.427Z,4.10
2023-02-02T12:13:07.472Z,4.00
2023-02-02T12:16:02.193Z,3.90
2023-02-02T12:18:56.171Z,3.90
2023-02-02T12:21:26.497Z,3.80
2023-02-02T12:24:25.118Z,3.90
2023-02-02T12:27:06.679Z,3.80
2023-02-02T12:30:05.291Z,3.80
2023-02-02T12:32:58.107Z,3.80
2023-02-02T12:35:31.816Z,3.60
2023-02-02T12:38:07.918Z,3.60
2023-02-02T12:40:57.709Z,3.70
2023-02-02T12:43:30.744Z,3.80
2023-02-02T12:46:21.070Z,3.80
2023-02-02T12:49:08.801Z,3.80
2023-02-02T12:52:19.890Z,3.80
2023-02-02T12:54:59.815Z,3.80
2023-02-02T12:57:50.640Z,3.80
2023-02-02T13:00:34.682Z,3.70
2023-02-02T13:03:28.691Z,3.70
2023-02-02T13:06:17.801Z,3.60
2023-02-02T13:08:56.044Z,3.60
2023-02-02T13:11:44.489Z,3.60
2023-02-02T13:14:34.361Z,3.50
2023-02-02T13:17:09.799Z,3.50
2023-02-02T13:19:42.326Z,3.40
2023-02-02T13:22:17.461Z,3.40
2023-02-02T13:24:48.114Z,3.40
2023-02-02T13:27:19.703Z,3.40
2023-02-02T13:29:52.853Z,3.40
2023-02-02T13:32:42.459Z,3.40
2023-02-02T13:35:31.352Z,3.40
2023-02-02T13:38:11.773Z,3.30
2023-02-02T13:40:41.265Z,3.30
2023-02-02T13:43:17.850Z,3.30
2023-02-02T13:46:14.011Z,3.20
2023-02-02T13:48:47.850Z,3.20
2023-02-02T13:51:28.175Z,3.20
2023-02-02T13:54:17.076Z,3.20
2023-02-02T13:57:09.915Z,3.20
2023-02-02T13:59:57.339Z,3.10
2023-02-02T14:02:39.958Z,3.10
2023-02-02T14:05:20.543Z,3.20
2023-02-02T14:07:48.603Z,3.10
2023-02-02T14:10:28.506Z,3.10
2023-02-02T14:12:56.475Z,3.10
2023-02-02T14:15:43.373Z,3.10
2023-02-02T14:18:10.955Z,3.10
2023-02-02T14:20:56.649Z,3.10
2023-02-02T14:23:54.037Z,3.10
2023-02-02T14:26:46.213Z,3.10
2023-02-02T14:29:33.503Z,3.10
2023-02-02T14:32:00.980Z,3.10
2023-02-02T14:34:44.448Z,3.10
2023-02-02T14:37:24.202Z,3.10
2023-02-02T14:40:17.585Z,3.00
2023-02-02T14:43:25.159Z,3.10
2023-02-02T14:46:14.131Z,3.00
2023-02-02T14:48:46.094Z,3.00
2023-02-02T14:51:23.080Z,3.00
2023-02-02T14:53:58.701Z,3.00
2023-02-02T14:57:00.582Z,3.00
2023-02-02T14:59:39.007Z,3.00
2023-02-02T15:02:22.016Z,3.00
2023-02-02T15:04:50.085Z,3.00
2023-02-02T15:07:23.580Z,3.00
2023-02-02T15:09:56.807Z,3.10
2023-02-02T15:12:28.334Z,3.00
2023-02-02T15:15:13.485Z,3.10
2023-02-02T15:17:41.050Z,3.00
2023-02-02T15:20:14.116Z,3.00
2023-02-02T15:23:12.302Z,3.10
2023-02-02T15:25:58.037Z,3.10
2023-02-02T15:28:44.511Z,3.00
2023-02-02T15:31:41.695Z,3.00
2023-02-02T15:34:42.177Z,3.00
2023-02-02T15:37:21.712Z,3.00
2023-02-02T15:39:56.249Z,3.00
2023-02-02T15:42:52.993Z,3.00
2023-02-02T15:45:56.718Z,3.00
2023-02-02T15:48:30.210Z,2.90
2023-02-02T15:51:15.453Z,3.00
2023-02-02T15:53:43.021Z,3.00
2023-02-02T15:56:22.981Z,3.00
2023-02-02T15:58:53.267Z,3.10
2023-02-02T16:01:23.757Z,3.00
2023-02-02T16:03:51.321Z,3.00
2023-02-02T16:06:20.709Z,3.00
2023-02-02T16:08:49.763Z,3.00
2023-02-02T16:11:21.296Z,3.00
2023-02-02T16:14:02.503Z,3.00
2023-02-02T16:16:37.002Z,3.00
2023-02-02T16:19:23.973Z,3.00
2023-02-02T16:22:04.401Z,3.00
2023-02-02T16:24:41.853Z,3.10
2023-02-02T16:27:15.267Z,3.10
2023-02-02T16:29:43.257Z,3.10
2023-02-02T16:32:31.998Z,3.10
2023-02-02T16:35:01.099Z,3.10
2023-02-02T16:37:34.280Z,3.20
2023-02-02T16:40:26.632Z,3.20
2023-02-02T16:43:17.658Z,3.20
2023-02-02T16:45:55.078Z,3.30
2023-02-02T16:48:37.795Z,3.20
2023-02-02T16:51:18.805Z,3.20
2023-02-02T16:54:22.831Z,3.20
2023-02-02T16:56:59.038Z,3.30
2023-02-02T16:59:34.980Z,3.20
2023-02-02T17:02:24.304Z,3.30
2023-02-02T17:05:15.214Z,3.30
2023-02-02T17:08:05.659Z,3.30
2023-02-02T17:10:42.907Z,3.30
2023-02-02T17:13:36.545Z,3.30
2023-02-02T17:16:04.573Z,3.30
2023-02-02T17:18:32.167Z,3.30
2023-02-02T17:21:07.266Z,3.30
2023-02-02T17:23:36.523Z,3.30
2023-02-02T17:26:07.196Z,3.30
2023-02-02T17:28:37.292Z,3.40
2023-02-02T17:31:13.907Z,3.30
2023-02-02T17:33:45.895Z,3.30
2023-02-02T17:36:13.721Z,3.40
2023-02-02T17:38:41.263Z,3.40
2023-02-02T17:41:12.537Z,3.40
2023-02-02T17:43:42.580Z,3.40
2023-02-02T17:46:13.002Z,3.40
2023-02-02T17:48:40.631Z,3.40
2023-02-02T17:51:16.986Z,3.50
2023-02-02T17:53:46.000Z,3.40
2023-02-02T17:56:13.539Z,3.40
2023-02-02T17:58:42.335Z,3.50
2023-02-02T18:01:11.696Z,3.50
2023-02-02T18:03:44.229Z,3.50
2023-02-02T18:06:12.223Z,3.50
2023-02-02T18:08:40.889Z,3.50
2023-02-02T18:11:12.286Z,3.50
2023-02-02T18:13:42.646Z,3.40
2023-02-02T18:16:11.653Z,3.40
2023-02-02T18:18:39.615Z,3.50
2023-02-02T18:21:11.230Z,3.50
2023-02-02T18:23:38.631Z,3.50
2023-02-02T18:26:18.668Z,3.50
2023-02-02T18:28:48.846Z,3.50
2023-02-02T18:31:19.899Z,3.50
2023-02-02T18:33:47.644Z,3.50
2023-02-02T18:36:20.212Z,3.50
2023-02-02T18:38:49.214Z,3.50
2023-02-02T18:41:18.518Z,3.50
2023-02-02T18:43:45.982Z,3.50
2023-02-02T18:46:15.513Z,3.50
2023-02-02T18:48:43.652Z,3.50
2023-02-02T18:51:18.475Z,3.50
2023-02-02T18:53:47.061Z,3.60
2023-02-02T18:56:15.362Z,3.60
2023-02-02T18:58:43.319Z,3.60
2023-02-02T19:01:16.517Z,3.60
2023-02-02T19:03:49.091Z,3.60
2023-02-02T19:06:36.197Z,3.60
2023-02-02T19:09:05.136Z,3.60
2023-02-02T19:11:39.049Z,3.60
2023-02-02T19:14:11.762Z,3.50
2023-02-02T19:16:39.277Z,3.60
2023-02-02T19:19:30.248Z,3.50
2023-02-02T19:21:59.475Z,3.50
2023-02-02T19:24:34.210Z,3.40
2023-02-02T19:27:01.768Z,3.40
2023-02-02T19:29:35.716Z,3.40
2023-02-02T19:32:12.695Z,3.40
2023-02-02T19:34:40.308Z,3.40
2023-02-02T19:37:24.140Z,3.40
2023-02-02T19:40:01.149Z,3.40
2023-02-02T19:42:28.880Z,3.40
2023-02-02T19:44:56.914Z,3.40
2023-02-02T19:47:33.584Z,3.30
2023-02-02T19:50:16.426Z,3.30
2023-02-02T19:52:50.082Z,3.30
2023-02-02T19:55:25.749Z,3.30
2023-02-02T19:57:57.790Z,3.30
2023-02-02T20:00:28.611Z,3.30
2023-02-02T20:03:07.568Z,3.30
2023-02-02T20:05:39.430Z,3.30
2023-02-02T20:08:06.963Z,3.20
2023-02-02T20:10:39.288Z,3.20
2023-02-02T20:13:38.894Z,3.20
2023-02-02T20:16:11.673Z,3.20
2023-02-02T20:18:53.579Z,3.20
2023-02-02T20:21:38.293Z,3.20
2023-02-02T20:24:30.961Z,3.10
2023-02-02T20:27:04.923Z,3.10
2023-02-02T20:29:41.703Z,3.10
2023-02-02T20:32:22.503Z,3.10
2023-02-02T20:34:51.672Z,3.10
2023-02-02T20:37:38.971Z,3.10
2023-02-02T20:40:32.904Z,3.10
2023-02-02T20:43:00.556Z,3.20
2023-02-02T20:45:28.208Z,3.10
2023-02-02T20:47:55.627Z,3.10
2023-02-02T20:50:23.323Z,3.10
2023-02-02T20:52:54.045Z,3.10
2023-02-02T20:55:21.838Z,3.20
2023-02-02T20:57:49.445Z,3.10
2023-02-02T21:00:19.288Z,3.10
2023-02-02T21:02:48.492Z,3.10
2023-02-02T21:05:16.199Z,3.10
2023-02-02T21:07:44.322Z,3.10
2023-02-02T21:10:12.082Z,3.10
2023-02-02T21:12:39.577Z,3.10
2023-02-02T21:15:07.682Z,3.10
2023-02-02T21:17:35.469Z,3.10
2023-02-02T21:20:03.420Z,3.20
2023-02-02T21:22:30.936Z,3.20
2023-02-02T21:24:58.849Z,3.20
2023-02-02T21:27:26.548Z,3.20
2023-02-02T21:29:54.127Z,3.20
2023-02-02T21:32:21.606Z,3.20
2023-02-02T21:34:49.509Z,3.20
2023-02-02T21:37:17.137Z,3.20
2023-02-02T21:39:49.643Z,3.10
2023-02-02T21:42:18.535Z,3.10
2023-02-02T21:45:07.898Z,3.10
2023-02-02T21:47:49.520Z,3.10
2023-02-02T21:50:44.698Z,3.10
2023-02-02T21:53:21.225Z,3.20
2023-02-02T21:55:56.783Z,3.20
2023-02-02T21:58:27.556Z,3.20
2023-02-02T22:01:02.507Z,3.30
2023-02-02T22:03:38.205Z,3.20
2023-02-02T22:06:21.044Z,3.20
2023-02-02T22:08:49.659Z,3.30
2023-02-02T22:11:32.118Z,3.30
2023-02-02T22:14:20.222Z,3.30
2023-02-02T22:16:53.368Z,3.30
2023-02-02T22:19:29.509Z,3.30
2023-02-02T22:22:19.116Z,3.30
2023-02-02T22:24:54.002Z,3.30
2023-02-02T22:27:24.166Z,3.20
2023-02-02T22:30:00.811Z,3.20
2023-02-02T22:32:28.297Z,3.20
2023-02-02T22:34:55.812Z,3.20
2023-02-02T22:37:23.336Z,3.20
2023-02-02T22:39:51.224Z,3.20
2023-02-02T22:42:20.755Z,3.10
2023-02-02T22:44:48.455Z,3.20
2023-02-02T22:47:15.973Z,3.20
2023-02-02T22:49:43.476Z,3.20
2023-02-02T22:52:13.605Z,3.20
2023-02-02T22:54:42.359Z,3.20
2023-02-02T22:57:09.947Z,3.20
2023-02-02T22:59:37.474Z,3.30
2023-02-02T23:02:05.053Z,3.30
2023-02-02T23:04:32.572Z,3.20
2023-02-02T23:07:00.107Z,3.30
2023-02-02T23:09:27.551Z,3.30
2023-02-02T23:11:55.099Z,3.30
2023-02-02T23:14:22.643Z,3.30
2023-02-02T23:16:50.124Z,3.30
2023-02-02T23:19:17.768Z,3.30
2023-02-02T23:21:45.227Z,3.30
2023-02-02T23:24:12.785Z,3.30
2023-02-02T23:26:40.433Z,3.30
2023-02-02T23:29:07.961Z,3.30
2023-02-02T23:31:35.527Z,3.30
2023-02-02T23:34:03.130Z,3.30
2023-02-02T23:36:30.765Z,3.30
2023-02-02T23:38:58.322Z,3.30
2023-02-02T23:41:25.876Z,3.30
2023-02-02T23:43:54.661Z,3.30
2023-02-02T23:46:22.484Z,3.30
2023-02-02T23:48:50.393Z,3.40
2023-02-02T23:51:18.558Z,3.40
2023-02-02T23:53:46.465Z,3.30
2023-02-02T23:56:13.982Z,3.30
2023-02-02T23:58:41.738Z,3.30
